createdAt,value
2022-12-29T00:01:07.209Z,6.56
2022-12-29T00:03:53.339Z,6.58
2022-12-29T00:06:39.156Z,6.57
2022-12-29T00:09:24.817Z,6.55
2022-12-29T00:12:10.423Z,6.58
2022-12-29T00:30:41.959Z,6.77
2022-12-29T00:33:49.989Z,6.76
2022-12-29T00:36:40.722Z,6.74
2022-12-29T00:39:45.540Z,6.70
2022-12-29T00:42:49.931Z,6.69
2022-12-29T00:45:35.974Z,6.64
2022-12-29T00:48:42.168Z,6.61
2022-12-29T00:51:28.213Z,6.55
2022-12-29T00:54:14.229Z,6.54
2022-12-29T00:57:01.603Z,6.47
2022-12-29T00:59:47.612Z,6.44
2022-12-29T01:02:35.439Z,6.39
2022-12-29T01:05:22.692Z,6.39
2022-12-29T01:08:08.424Z,6.43
2022-12-29T01:11:11.553Z,6.43
2022-12-29T01:14:04.096Z,6.44
2022-12-29T01:16:51.074Z,6.40
2022-12-29T01:19:37.009Z,6.43
2022-12-29T01:22:22.645Z,6.40
2022-12-29T01:25:08.447Z,6.43
2022-12-29T01:27:54.222Z,6.42
2022-12-29T01:30:39.859Z,6.35
2022-12-29T01:33:25.612Z,6.37
2022-12-29T01:36:14.012Z,6.33
2022-12-29T01:39:00.313Z,6.27
2022-12-29T01:41:46.571Z,6.28
2022-12-29T01:44:55.806Z,6.29
2022-12-29T01:48:00.322Z,6.29
2022-12-29T01:50:47.641Z,6.27
2022-12-29T01:53:35.923Z,6.28
2022-12-29T01:56:22.652Z,6.28
2022-12-29T01:59:13.519Z,6.26
2022-12-29T02:02:01.263Z,6.21
2022-12-29T02:04:47.077Z,6.20
2022-12-29T02:07:37.150Z,6.20
2022-12-29T02:10:24.728Z,6.16
2022-12-29T02:13:10.732Z,6.10
2022-12-29T02:16:16.135Z,6.08
2022-12-29T02:19:05.132Z,6.04
2022-12-29T02:22:04.123Z,5.99
2022-12-29T02:25:15.455Z,5.99
2022-12-29T02:28:10.716Z,6.01
2022-12-29T02:31:11.629Z,6.02
2022-12-29T02:34:12.759Z,6.07
2022-12-29T02:37:29.729Z,6.09
2022-12-29T02:40:25.230Z,6.12
2022-12-29T02:43:24.565Z,6.13
2022-12-29T02:46:13.628Z,6.14
2022-12-29T02:49:33.368Z,6.09
2022-12-29T02:52:24.988Z,6.09
2022-12-29T02:55:12.746Z,6.10
2022-12-29T02:58:23.619Z,6.11
2022-12-29T03:01:24.785Z,6.14
2022-12-29T03:04:43.696Z,6.12
2022-12-29T03:07:48.091Z,6.12
2022-12-29T03:10:49.996Z,6.15
2022-12-29T03:14:12.362Z,6.16
2022-12-29T03:17:02.469Z,6.16
2022-12-29T03:19:50.461Z,6.15
2022-12-29T03:22:41.926Z,6.13
2022-12-29T03:25:39.646Z,6.14
2022-12-29T03:28:31.702Z,6.14
2022-12-29T03:31:18.001Z,6.12
2022-12-29T03:34:04.359Z,6.16
2022-12-29T03:37:14.203Z,6.16
2022-12-29T03:40:00.383Z,6.18
2022-12-29T03:42:46.556Z,6.19
2022-12-29T03:45:32.619Z,6.18
2022-12-29T03:48:18.702Z,6.19
2022-12-29T03:51:06.216Z,6.24
2022-12-29T03:53:52.257Z,6.25
2022-12-29T03:56:38.049Z,6.24
2022-12-29T03:59:24.492Z,6.22
2022-12-29T04:02:10.861Z,6.25
2022-12-29T04:04:57.211Z,6.26
2022-12-29T04:07:43.124Z,6.27
2022-12-29T04:10:28.950Z,6.26
2022-12-29T04:13:18.113Z,6.29
2022-12-29T04:16:04.575Z,6.29
2022-12-29T04:18:50.734Z,6.26
2022-12-29T04:21:36.802Z,6.26
2022-12-29T04:24:23.418Z,6.24
2022-12-29T04:27:09.585Z,6.24
2022-12-29T04:30:14.133Z,6.20
2022-12-29T04:33:13.384Z,6.14
2022-12-29T04:36:02.482Z,6.07
2022-12-29T04:38:48.647Z,6.06
2022-12-29T04:41:34.508Z,6.01
2022-12-29T04:45:33.575Z,5.96
2022-12-29T04:48:33.798Z,5.94
2022-12-29T04:51:54.083Z,5.93
2022-12-29T04:54:40.722Z,5.95
2022-12-29T04:57:32.947Z,5.95
2022-12-29T05:00:20.378Z,5.98
2022-12-29T05:03:06.961Z,5.97
2022-12-29T05:07:03.391Z,5.97
2022-12-29T05:14:02.845Z,5.93
2022-12-29T05:16:48.724Z,5.92
2022-12-29T05:19:34.820Z,5.85
2022-12-29T05:22:40.634Z,5.86
2022-12-29T05:25:27.881Z,5.86
2022-12-29T05:28:23.866Z,5.84
2022-12-29T05:31:36.874Z,5.80
2022-12-29T05:34:24.424Z,5.80
2022-12-29T05:37:10.903Z,5.76
2022-12-29T05:40:00.561Z,5.74
2022-12-29T05:42:51.432Z,5.76
2022-12-29T05:46:00.446Z,5.71
2022-12-29T05:49:05.890Z,5.65
2022-12-29T05:52:46.808Z,5.73
2022-12-29T05:55:33.274Z,5.70
2022-12-29T05:58:19.415Z,5.71
2022-12-29T06:01:10.317Z,5.70
2022-12-29T06:03:57.074Z,5.67
2022-12-29T06:06:43.963Z,5.65
2022-12-29T06:09:38.926Z,5.66
2022-12-29T06:12:28.472Z,5.58
2022-12-29T06:15:14.920Z,5.60
2022-12-29T06:18:03.775Z,5.58
2022-12-29T06:20:50.163Z,5.57
2022-12-29T06:23:41.312Z,5.55
2022-12-29T06:26:31.059Z,5.51
2022-12-29T06:29:18.226Z,5.48
2022-12-29T06:32:45.695Z,5.51
2022-12-29T06:35:32.228Z,5.53
2022-12-29T06:38:40.799Z,5.48
2022-12-29T06:41:31.950Z,5.48
2022-12-29T06:44:42.124Z,5.42
2022-12-29T06:47:29.223Z,5.45
2022-12-29T06:50:14.943Z,5.45
2022-12-29T06:53:01.115Z,5.45
2022-12-29T06:55:46.786Z,5.45
2022-12-29T06:58:32.751Z,5.48
2022-12-29T07:01:19.190Z,5.46
2022-12-29T07:04:06.187Z,5.42
2022-12-29T07:06:51.884Z,5.30
2022-12-29T07:09:37.610Z,5.28
2022-12-29T07:12:23.629Z,5.26
2022-12-29T07:15:10.189Z,5.28
2022-12-29T07:17:55.969Z,5.26
2022-12-29T07:20:41.638Z,5.22
2022-12-29T07:23:27.444Z,5.26
2022-12-29T07:26:15.359Z,5.26
2022-12-29T07:29:02.246Z,5.23
2022-12-29T07:31:48.104Z,5.23
2022-12-29T07:34:33.677Z,5.20
2022-12-29T07:37:19.585Z,5.13
2022-12-29T07:40:06.019Z,5.11
2022-12-29T07:42:51.799Z,5.13
2022-12-29T07:45:45.654Z,5.10
2022-12-29T07:48:31.407Z,5.12
2022-12-29T07:51:17.220Z,5.17
2022-12-29T07:54:02.911Z,5.16
2022-12-29T07:56:48.667Z,5.17
2022-12-29T07:59:34.360Z,5.21
2022-12-29T08:02:20.110Z,5.22
2022-12-29T08:05:06.839Z,5.21
2022-12-29T08:07:52.424Z,5.20
2022-12-29T08:10:38.271Z,5.22
2022-12-29T08:13:24.315Z,5.25
2022-12-29T08:16:16.194Z,5.30
2022-12-29T08:19:02.576Z,5.39
2022-12-29T08:21:48.637Z,5.46
2022-12-29T08:24:34.169Z,5.49
2022-12-29T08:27:27.425Z,5.54
2022-12-29T08:30:48.836Z,5.57
2022-12-29T08:33:34.991Z,5.65
2022-12-29T08:36:20.845Z,5.70
2022-12-29T08:39:06.790Z,5.78
2022-12-29T08:41:56.627Z,5.88
2022-12-29T08:44:46.984Z,5.97
2022-12-29T08:47:32.669Z,6.04
2022-12-29T08:50:18.659Z,6.09
2022-12-29T08:53:04.739Z,6.19
2022-12-29T08:56:02.396Z,6.24
2022-12-29T08:59:03.165Z,6.33
2022-12-29T09:01:50.355Z,6.43
2022-12-29T09:04:36.478Z,6.51
2022-12-29T09:07:22.530Z,6.67
2022-12-29T09:10:08.434Z,6.90
2022-12-29T09:12:54.323Z,7.11
2022-12-29T09:15:40.530Z,7.28
2022-12-29T09:18:26.466Z,7.50
2022-12-29T09:21:13.529Z,7.68
2022-12-29T09:23:59.160Z,7.88
2022-12-29T09:26:47.055Z,8.08
2022-12-29T09:29:37.961Z,8.30
2022-12-29T09:32:24.394Z,8.56
2022-12-29T09:35:10.981Z,8.76
2022-12-29T09:37:56.965Z,8.95
2022-12-29T09:40:51.873Z,9.11
2022-12-29T09:44:12.769Z,9.33
2022-12-29T09:47:01.740Z,9.59
2022-12-29T09:49:50.715Z,9.79
2022-12-29T09:52:46.482Z,10.04
2022-12-29T09:55:40.459Z,10.18
2022-12-29T09:58:46.735Z,10.35
2022-12-29T10:01:38.581Z,10.46
2022-12-29T10:04:27.823Z,10.64
2022-12-29T10:07:37.282Z,10.75
2022-12-29T10:10:32.727Z,10.90
2022-12-29T10:13:22.869Z,11.07
2022-12-29T10:16:29.413Z,11.25
2022-12-29T10:19:22.383Z,11.44
2022-12-29T10:22:36.079Z,11.56
2022-12-29T10:25:27.223Z,11.68
2022-12-29T10:28:24.540Z,11.82
2022-12-29T10:31:35.936Z,11.98
2022-12-29T10:34:53.673Z,12.16
2022-12-29T10:37:54.481Z,12.40
2022-12-29T10:41:08.658Z,12.62
2022-12-29T10:43:58.512Z,12.82
2022-12-29T10:46:56.790Z,13.02
2022-12-29T10:49:43.714Z,13.25
2022-12-29T10:52:30.073Z,13.42
2022-12-29T10:55:24.089Z,13.61
2022-12-29T10:58:13.945Z,13.76
2022-12-29T11:01:00.675Z,13.88
2022-12-29T11:04:05.451Z,13.98
2022-12-29T11:06:51.480Z,14.00
2022-12-29T11:09:42.697Z,14.10
2022-12-29T11:12:42.289Z,14.30
2022-12-29T11:15:28.573Z,14.48
2022-12-29T11:18:43.657Z,14.72
2022-12-29T11:21:43.648Z,14.86
2022-12-29T11:24:32.135Z,14.91
2022-12-29T11:27:27.857Z,14.97
2022-12-29T11:30:27.542Z,15.06
2022-12-29T11:33:15.496Z,15.24
2022-12-29T11:36:04.379Z,15.47
2022-12-29T11:38:52.586Z,15.65
2022-12-29T11:41:38.623Z,15.85
2022-12-29T11:44:25.427Z,15.96
2022-12-29T11:47:21.458Z,16.00
2022-12-29T11:50:09.298Z,16.11
2022-12-29T11:53:21.665Z,16.22
2022-12-29T11:56:10.880Z,16.34
2022-12-29T11:58:56.999Z,16.54
2022-12-29T12:01:44.114Z,16.71
2022-12-29T12:04:32.395Z,16.96
2022-12-29T12:07:22.169Z,17.10
2022-12-29T12:10:33.812Z,17.07
2022-12-29T12:13:25.201Z,16.87
2022-12-29T12:16:16.621Z,16.54
2022-12-29T12:19:16.598Z,16.28
2022-12-29T12:22:10.007Z,16.00
2022-12-29T12:25:00.270Z,15.85
2022-12-29T12:28:00.964Z,15.64
2022-12-29T12:30:50.304Z,15.48
2022-12-29T12:33:46.017Z,15.33
2022-12-29T12:37:11.242Z,15.25
2022-12-29T12:40:00.332Z,15.25
2022-12-29T12:43:11.384Z,15.28
2022-12-29T12:46:32.114Z,15.29
2022-12-29T12:49:24.426Z,15.28
2022-12-29T12:52:32.011Z,15.19
2022-12-29T12:56:13.974Z,15.07
2022-12-29T12:59:11.822Z,15.01
2022-12-29T13:02:30.924Z,14.95
2022-12-29T13:05:35.594Z,14.88
2022-12-29T13:08:50.570Z,14.78
2022-12-29T13:12:00.067Z,14.65
2022-12-29T13:15:06.383Z,14.50
2022-12-29T13:18:12.572Z,14.29
2022-12-29T13:21:06.519Z,14.17
2022-12-29T13:24:15.121Z,14.01
2022-12-29T13:27:25.612Z,13.82
2022-12-29T13:30:16.855Z,13.66
2022-12-29T13:33:23.151Z,13.52
2022-12-29T13:36:32.948Z,13.36
2022-12-29T13:39:38.164Z,13.18
2022-12-29T13:42:25.490Z,13.08
2022-12-29T13:45:32.735Z,12.94
2022-12-29T13:48:22.949Z,12.80
2022-12-29T13:51:10.571Z,12.70
2022-12-29T13:54:05.113Z,12.66
2022-12-29T13:56:53.418Z,12.61
2022-12-29T13:59:42.723Z,12.55
2022-12-29T14:02:28.902Z,12.51
2022-12-29T14:05:31.237Z,12.45
2022-12-29T14:08:18.430Z,12.47
2022-12-29T14:11:13.393Z,12.44
2022-12-29T14:13:59.496Z,12.39
2022-12-29T14:16:46.902Z,12.35
2022-12-29T14:19:42.305Z,12.30
2022-12-29T14:22:33.182Z,12.26
2022-12-29T14:25:57.111Z,12.19
2022-12-29T14:28:48.958Z,12.13
2022-12-29T14:31:36.413Z,12.07
2022-12-29T14:34:22.465Z,12.04
2022-12-29T14:37:43.621Z,11.95
2022-12-29T14:40:29.673Z,11.89
2022-12-29T14:43:26.829Z,11.83
2022-12-29T14:46:12.858Z,11.81
2022-12-29T14:48:59.963Z,11.78
2022-12-29T14:51:48.083Z,11.72
2022-12-29T14:54:40.000Z,11.72
2022-12-29T14:57:30.153Z,11.70
2022-12-29T15:00:26.630Z,11.68
2022-12-29T15:03:21.330Z,11.64
2022-12-29T15:06:15.335Z,11.60
2022-12-29T15:09:01.298Z,11.60
2022-12-29T15:11:54.191Z,11.55
2022-12-29T15:14:51.576Z,11.54
2022-12-29T15:17:39.911Z,11.54
2022-12-29T15:20:31.495Z,11.51
2022-12-29T15:23:18.371Z,11.48
2022-12-29T15:26:08.635Z,11.44
2022-12-29T15:28:55.743Z,11.42
2022-12-29T15:31:49.870Z,11.38
2022-12-29T15:34:36.044Z,11.37
2022-12-29T15:37:30.221Z,11.33
2022-12-29T15:40:31.868Z,11.28
2022-12-29T15:44:01.638Z,11.23
2022-12-29T15:46:52.158Z,11.21
2022-12-29T15:49:38.360Z,11.14
2022-12-29T15:52:25.785Z,11.16
2022-12-29T15:55:42.953Z,11.15
2022-12-29T15:58:30.716Z,11.15
2022-12-29T16:01:20.987Z,11.13
2022-12-29T16:04:08.207Z,11.13
2022-12-29T16:07:07.046Z,11.11
2022-12-29T16:09:58.458Z,11.09
2022-12-29T16:12:44.937Z,11.05
2022-12-29T16:15:30.968Z,11.04
2022-12-29T16:18:28.444Z,10.99
2022-12-29T16:21:29.506Z,10.93
2022-12-29T16:24:26.782Z,10.87
2022-12-29T16:27:25.380Z,10.87
2022-12-29T16:30:32.834Z,10.83
2022-12-29T16:34:10.563Z,10.77
2022-12-29T16:37:05.443Z,10.74
2022-12-29T16:39:51.377Z,10.67
2022-12-29T16:42:51.876Z,10.64
2022-12-29T16:45:48.040Z,10.59
2022-12-29T16:48:51.175Z,10.53
2022-12-29T16:51:37.683Z,10.48
2022-12-29T16:54:53.947Z,10.41
2022-12-29T16:57:39.541Z,10.37
2022-12-29T17:00:28.025Z,10.32
2022-12-29T17:03:14.682Z,10.27
2022-12-29T17:06:00.883Z,10.25
2022-12-29T17:08:47.480Z,10.19
2022-12-29T17:11:59.441Z,10.15
2022-12-29T17:14:59.976Z,10.10
2022-12-29T17:17:46.886Z,10.05
2022-12-29T17:20:32.906Z,9.98
2022-12-29T17:23:24.456Z,9.95
2022-12-29T17:26:17.329Z,9.91
2022-12-29T17:29:03.970Z,9.80
2022-12-29T17:31:49.891Z,9.85
2022-12-29T17:34:35.386Z,9.79
2022-12-29T17:37:23.878Z,9.73
2022-12-29T17:40:14.951Z,9.65
2022-12-29T17:43:00.920Z,9.59
2022-12-29T17:45:51.319Z,9.54
2022-12-29T17:48:37.286Z,9.47
2022-12-29T17:51:23.066Z,9.37
2022-12-29T17:54:20.514Z,9.32
2022-12-29T17:57:06.404Z,9.25
2022-12-29T17:59:52.446Z,9.18
2022-12-29T18:02:38.356Z,9.12
2022-12-29T18:05:27.027Z,9.06
2022-12-29T18:08:13.405Z,8.99
2022-12-29T18:10:59.190Z,8.95
2022-12-29T18:13:46.958Z,8.90
2022-12-29T18:16:32.873Z,8.85
2022-12-29T18:19:18.490Z,8.79
2022-12-29T18:22:04.381Z,8.75
2022-12-29T18:24:50.934Z,8.69
2022-12-29T18:27:36.529Z,8.66
2022-12-29T18:30:22.890Z,8.60
2022-12-29T18:33:20.974Z,8.53
2022-12-29T18:36:10.407Z,8.44
2022-12-29T18:38:56.520Z,8.39
2022-12-29T18:41:42.331Z,8.36
2022-12-29T18:44:28.444Z,8.32
2022-12-29T18:47:14.651Z,8.30
2022-12-29T18:50:00.481Z,8.24
2022-12-29T18:52:46.513Z,8.22
2022-12-29T18:55:32.920Z,8.18
2022-12-29T18:58:18.825Z,8.13
2022-12-29T19:01:06.629Z,8.08
2022-12-29T19:03:52.777Z,8.01
2022-12-29T19:06:38.945Z,7.95
2022-12-29T19:09:26.702Z,7.91
2022-12-29T19:12:15.773Z,7.87
2022-12-29T19:15:02.405Z,7.83
2022-12-29T19:18:01.965Z,7.76
2022-12-29T19:20:57.523Z,7.75
2022-12-29T19:23:43.365Z,7.72
2022-12-29T19:26:37.433Z,7.66
2022-12-29T19:29:23.441Z,7.67
2022-12-29T19:32:09.330Z,7.65
2022-12-29T19:34:55.013Z,7.61
2022-12-29T19:37:41.653Z,7.62
2022-12-29T19:40:28.041Z,7.58
2022-12-29T19:43:14.506Z,7.61
2022-12-29T19:46:09.496Z,7.59
2022-12-29T19:48:59.459Z,7.54
2022-12-29T19:51:45.595Z,7.60
2022-12-29T19:54:31.826Z,7.63
2022-12-29T19:57:18.071Z,7.65
2022-12-29T20:00:04.404Z,7.67
2022-12-29T20:02:57.845Z,7.65
2022-12-29T20:05:48.943Z,7.71
2022-12-29T20:08:35.631Z,7.73
2022-12-29T20:11:21.976Z,7.78
2022-12-29T20:14:08.279Z,7.81
2022-12-29T20:17:10.770Z,7.86
2022-12-29T20:20:01.291Z,7.88
2022-12-29T20:22:46.941Z,7.90
2022-12-29T20:25:48.597Z,7.90
2022-12-29T20:28:36.969Z,7.85
2022-12-29T20:31:41.361Z,7.83
2022-12-29T20:34:31.574Z,7.80
2022-12-29T20:37:17.914Z,7.77
2022-12-29T20:40:04.613Z,7.76
2022-12-29T20:42:50.318Z,7.76
2022-12-29T20:45:36.820Z,7.74
2022-12-29T20:48:22.615Z,7.59
2022-12-29T20:51:08.988Z,7.70
2022-12-29T20:53:55.002Z,7.68
2022-12-29T20:56:40.884Z,7.65
2022-12-29T20:59:28.021Z,7.65
2022-12-29T21:02:22.720Z,7.61
2022-12-29T21:05:25.659Z,7.62
2022-12-29T21:08:12.513Z,7.59
2022-12-29T21:10:58.996Z,7.49
2022-12-29T21:13:48.007Z,7.51
2022-12-29T21:16:34.032Z,7.43
2022-12-29T21:19:20.247Z,7.30
2022-12-29T21:22:06.321Z,7.36
2022-12-29T21:24:52.361Z,7.29
2022-12-29T21:27:38.994Z,7.29
2022-12-29T21:30:25.206Z,7.29
2022-12-29T21:33:10.878Z,7.23
2022-12-29T21:36:04.178Z,7.27
2022-12-29T21:38:50.082Z,7.25
2022-12-29T21:41:36.498Z,7.24
2022-12-29T21:44:41.799Z,7.21
2022-12-29T21:47:48.983Z,7.23
2022-12-29T21:50:58.408Z,7.17
2022-12-29T21:53:47.852Z,7.11
2022-12-29T21:56:40.085Z,7.11
2022-12-29T21:59:44.678Z,7.11
2022-12-29T22:02:49.405Z,7.08
2022-12-29T22:05:53.944Z,7.04
2022-12-29T22:09:04.674Z,7.04
2022-12-29T22:12:09.435Z,7.08
2022-12-29T22:14:55.280Z,7.11
2022-12-29T22:17:48.699Z,7.12
2022-12-29T22:20:38.664Z,7.11
2022-12-29T22:23:24.373Z,7.15
2022-12-29T22:26:12.446Z,7.15
2022-12-29T22:28:58.727Z,7.17
2022-12-29T22:31:44.543Z,7.18
2022-12-29T22:34:30.216Z,7.18
2022-12-29T22:37:16.617Z,7.18
2022-12-29T22:40:02.568Z,7.16
2022-12-29T22:42:48.236Z,7.16
2022-12-29T22:45:34.017Z,7.15
2022-12-29T22:48:19.682Z,7.16
2022-12-29T22:51:05.805Z,7.16
2022-12-29T22:53:51.926Z,7.17
2022-12-29T22:56:42.161Z,7.18
2022-12-29T22:59:28.144Z,7.21
2022-12-29T23:02:13.916Z,7.20
2022-12-29T23:05:03.413Z,7.26
2022-12-29T23:07:50.235Z,7.26
2022-12-29T23:10:36.119Z,7.25
2022-12-29T23:13:22.027Z,7.19
2022-12-29T23:16:08.237Z,7.19
2022-12-29T23:18:54.068Z,7.15
2022-12-29T23:21:40.112Z,7.14
2022-12-29T23:24:26.213Z,7.11
2022-12-29T23:27:12.234Z,7.07
2022-12-29T23:29:58.098Z,7.05
2022-12-29T23:32:44.031Z,7.05
2022-12-29T23:35:29.905Z,7.02
2022-12-29T23:38:15.647Z,6.95
2022-12-29T23:41:01.525Z,6.97
2022-12-29T23:43:47.364Z,6.91
2022-12-29T23:46:33.167Z,6.94
2022-12-29T23:49:18.993Z,6.90
2022-12-29T23:52:04.790Z,6.87
2022-12-29T23:54:50.495Z,6.86
2022-12-29T23:57:36.229Z,6.87
